Time;durP1;ratioP1;P1;durP2;ratioP2;P2;SDS_P1;SDS_P2;PMS_P1;PMS_P2;Temp;Humidity;BMP_temperature;BMP_pressure;BME280_temperature;BME280_humidity;BME280_pressure;Samples;Min_cycle;Max_cycle;Signal;HPM_P1;HPM_P2
2022/05/06 00:00:19;;;;;;;37.72;13.20;;;11.00;99.90;;;;;;5033998;28;20060;-32
2022/05/06 00:02:45;;;;;;;43.55;13.82;;;11.00;99.90;;;;;;5032508;28;20469;-30
2022/05/06 00:05:11;;;;;;;41.10;14.88;;;11.00;99.90;;;;;;5034050;28;20040;-32
2022/05/06 00:07:37;;;;;;;46.90;15.38;;;10.90;99.90;;;;;;5033886;28;20112;-30
2022/05/06 00:10:04;;;;;;;52.05;15.98;;;11.00;99.90;;;;;;5033740;28;20026;-34
2022/05/06 00:12:30;;;;;;;41.92;14.95;;;11.00;99.90;;;;;;5033622;28;20021;-30
2022/05/06 00:14:56;;;;;;;49.42;15.82;;;11.00;99.90;;;;;;5033362;28;20045;-47
2022/05/06 00:17:22;;;;;;;55.80;15.93;;;11.00;99.90;;;;;;5033838;28;20477;-38
2022/05/06 00:19:48;;;;;;;63.83;16.73;;;11.00;99.90;;;;;;5032409;28;20017;-38
2022/05/06 00:22:13;;;;;;;53.05;17.27;;;11.00;99.90;;;;;;5033851;28;20041;-43
2022/05/06 00:24:39;;;;;;;55.15;16.33;;;11.00;99.90;;;;;;5033489;28;20018;-43
2022/05/06 00:27:05;;;;;;;59.80;16.73;;;11.00;99.90;;;;;;5033508;28;20026;-37
2022/05/06 00:29:31;;;;;;;49.83;17.70;;;11.10;99.90;;;;;;5033455;28;20060;-37
2022/05/06 00:31:56;;;;;;;54.33;17.42;;;11.10;99.90;;;;;;5033681;28;20090;-38
2022/05/06 00:34:25;;;;;;;53.83;17.25;;;11.10;99.90;;;;;;5033247;28;20386;-36
2022/05/06 00:36:51;;;;;;;48.22;15.27;;;11.20;99.90;;;;;;5032001;28;20049;-38
2022/05/06 00:39:16;;;;;;;58.53;15.77;;;11.20;99.90;;;;;;5033276;28;20022;-38
2022/05/06 00:41:42;;;;;;;51.58;15.25;;;11.20;99.90;;;;;;5033267;28;20474;-38
2022/05/06 00:44:09;;;;;;;50.35;16.42;;;11.20;99.90;;;;;;5033507;28;20561;-36
2022/05/06 00:46:37;;;;;;;57.83;15.02;;;11.20;99.90;;;;;;5032254;28;20049;-38
2022/05/06 00:49:03;;;;;;;44.88;14.93;;;11.10;99.90;;;;;;5033481;28;20021;-38
2022/05/06 00:51:29;;;;;;;42.97;14.98;;;11.10;99.90;;;;;;5033175;28;20022;-38
2022/05/06 00:53:56;;;;;;;44.92;14.65;;;11.10;99.90;;;;;;5033133;28;20029;-44
2022/05/06 00:56:25;;;;;;;60.25;16.23;;;11.10;99.90;;;;;;5031810;28;20025;-38
2022/05/06 00:58:52;;;;;;;53.80;15.48;;;11.10;99.90;;;;;;5033093;28;20017;-38
2022/05/06 01:01:18;;;;;;;50.58;15.52;;;11.10;99.90;;;;;;5031937;28;20470;-37
2022/05/06 01:03:44;;;;;;;74.80;14.27;;;11.10;99.90;;;;;;5032854;28;20088;-37
2022/05/06 01:06:13;;;;;;;59.95;15.20;;;11.10;99.90;;;;;;5033018;28;20367;-37
2022/05/06 01:08:39;;;;;;;47.28;16.45;;;11.20;99.90;;;;;;5033248;28;20474;-36
2022/05/06 01:11:06;;;;;;;53.45;13.98;;;11.10;99.90;;;;;;5033326;28;20428;-38
2022/05/06 01:13:37;;;;;;;50.63;15.38;;;11.10;99.90;;;;;;5032817;28;20054;-38
2022/05/06 01:16:03;;;;;;;45.22;13.90;;;11.10;99.90;;;;;;5032909;28;20065;-37
2022/05/06 01:18:32;;;;;;;44.08;13.88;;;11.20;99.90;;;;;;5032903;28;20532;-38
2022/05/06 01:20:59;;;;;;;52.22;13.15;;;11.20;99.90;;;;;;5032899;28;20025;-38
2022/05/06 01:23:24;;;;;;;37.40;13.70;;;11.10;99.90;;;;;;5032844;28;20025;-52
2022/05/06 01:25:50;;;;;;;31.08;12.15;;;11.20;99.90;;;;;;5032877;28;20026;-29
2022/05/06 01:28:16;;;;;;;42.88;13.55;;;11.10;99.90;;;;;;5032784;28;20037;-38
2022/05/06 01:30:45;;;;;;;64.55;11.40;;;11.10;99.90;;;;;;5032809;28;20116;-37
2022/05/06 01:33:12;;;;;;;36.80;12.75;;;11.10;99.90;;;;;;5033069;28;20041;-37
2022/05/06 01:35:50;;;;;;;36.03;13.37;;;11.20;99.90;;;;;;5032665;28;20386;-38
2022/05/06 01:38:21;;;;;;;36.67;12.88;;;11.20;99.90;;;;;;5033019;28;20021;-38
2022/05/06 01:40:52;;;;;;;33.35;11.75;;;11.30;99.90;;;;;;5032771;28;20496;-38
2022/05/06 01:43:20;;;;;;;29.65;10.20;;;11.30;99.90;;;;;;5032936;28;20500;-40
2022/05/06 01:45:48;;;;;;;;;;;11.30;99.90;;;;;;5033073;28;20025;-36
2022/05/06 01:48:16;;;;;;;23.17;9.70;;;11.30;99.90;;;;;;5032651;28;19917;-37
2022/05/06 01:50:43;;;;;;;29.60;10.77;;;11.40;99.90;;;;;;5032926;28;20541;-37
2022/05/06 01:53:09;;;;;;;27.35;11.38;;;11.40;99.90;;;;;;5032619;28;20101;-37
2022/05/06 01:55:36;;;;;;;26.00;10.73;;;11.40;99.90;;;;;;5032475;28;20560;-38
2022/05/06 01:58:03;;;;;;;28.00;11.10;;;11.40;99.90;;;;;;5035220;28;20100;-37
2022/05/06 02:00:29;;;;;;;;;;;11.40;99.90;;;;;;5036572;28;20109;-38
2022/05/06 02:02:56;;;;;;;24.80;9.95;;;11.40;99.90;;;;;;5035892;28;19948;-36
2022/05/06 02:05:23;;;;;;;29.80;9.68;;;11.40;99.90;;;;;;5036306;28;20025;-38
2022/05/06 02:07:50;;;;;;;25.98;9.73;;;11.40;99.90;;;;;;5036120;28;20101;-37
2022/05/06 02:10:20;;;;;;;26.33;10.60;;;11.40;99.90;;;;;;5034751;28;20033;-37
2022/05/06 02:12:46;;;;;;;22.90;9.80;;;11.40;99.90;;;;;;5035977;28;20025;-37
2022/05/06 02:15:17;;;;;;;22.60;9.25;;;11.40;99.90;;;;;;5035767;28;20041;-37
2022/05/06 02:17:42;;;;;;;20.25;9.05;;;11.40;99.90;;;;;;5035848;28;20033;-37
2022/05/06 02:20:10;;;;;;;20.83;9.35;;;11.40;99.90;;;;;;5035865;28;20052;-38
2022/05/06 02:22:37;;;;;;;;;;;11.30;99.90;;;;;;5036228;28;20033;-37
2022/05/06 02:25:05;;;;;;;18.27;7.47;;;11.30;99.90;;;;;;5035643;28;19905;-48
2022/05/06 02:27:31;;;;;;;;;;;11.10;99.90;;;;;;5036341;28;20555;-38
2022/05/06 02:35:26;;;;;;;18.92;8.35;;;11.10;99.90;;;;;;5035315;28;20044;-31
2022/05/06 02:37:51;;;;;;;20.30;9.20;;;10.90;99.90;;;;;;5035768;28;20472;-28
2022/05/06 02:40:17;;;;;;;25.55;8.38;;;10.80;99.90;;;;;;5035414;28;20159;-40
2022/05/06 02:42:43;;;;;;;15.35;8.18;;;10.80;99.90;;;;;;5035430;28;20076;-29
2022/05/06 02:45:10;;;;;;;21.38;9.13;;;10.70;99.90;;;;;;5035426;28;20014;-45
2022/05/06 02:47:36;;;;;;;18.13;8.55;;;10.70;99.90;;;;;;5035280;28;20111;-31
2022/05/06 02:50:02;;;;;;;21.92;9.32;;;10.70;99.90;;;;;;5035284;28;20021;-33
2022/05/06 02:52:28;;;;;;;18.58;8.32;;;10.80;99.90;;;;;;5035217;28;20025;-31
2022/05/06 02:54:53;;;;;;;22.15;8.98;;;10.80;99.90;;;;;;5034969;28;20044;-30
2022/05/06 02:57:19;;;;;;;20.23;9.45;;;10.90;99.90;;;;;;5034912;28;20033;-30
2022/05/06 02:59:44;;;;;;;16.10;8.98;;;10.90;99.90;;;;;;5034912;28;20018;-31
2022/05/06 03:02:10;;;;;;;15.23;8.57;;;10.90;99.90;;;;;;5034955;28;20052;-33
2022/05/06 03:04:36;;;;;;;30.00;8.10;;;10.90;99.90;;;;;;5035643;28;20109;-30
2022/05/06 03:07:06;;;;;;;15.18;7.32;;;10.90;99.90;;;;;;5035231;28;20025;-32
2022/05/06 03:09:33;;;;;;;14.27;8.00;;;10.80;99.90;;;;;;5034207;28;20401;-31
2022/05/06 03:11:59;;;;;;;16.88;7.68;;;10.80;99.90;;;;;;5035181;28;20457;-31
2022/05/06 03:14:24;;;;;;;13.43;7.40;;;10.70;99.90;;;;;;5034516;28;20110;-31
2022/05/06 03:16:50;;;;;;;17.65;9.32;;;10.60;99.90;;;;;;5034737;28;20112;-32
2022/05/06 03:19:16;;;;;;;16.50;8.80;;;10.50;99.90;;;;;;5034797;28;20017;-33
2022/05/06 03:21:42;;;;;;;18.63;9.25;;;10.60;99.90;;;;;;5033107;28;20087;-36
2022/05/06 03:24:08;;;;;;;26.50;9.32;;;10.60;99.90;;;;;;5034638;28;20029;-38
2022/05/06 03:26:34;;;;;;;19.23;9.18;;;10.50;99.90;;;;;;5034664;28;20037;-41
2022/05/06 03:28:59;;;;;;;14.75;8.40;;;10.40;99.90;;;;;;5034531;28;20471;-38
2022/05/06 03:31:26;;;;;;;23.92;8.35;;;10.50;99.90;;;;;;5033249;28;20116;-43
2022/05/06 03:33:54;;;;;;;12.73;7.70;;;10.50;99.90;;;;;;5034351;28;20486;-29
2022/05/06 03:36:24;;;;;;;16.83;8.70;;;10.50;99.90;;;;;;5034189;28;20029;-31
2022/05/06 03:38:49;;;;;;;19.52;9.68;;;10.60;99.90;;;;;;5034334;28;20027;-29
2022/05/06 03:41:15;;;;;;;14.50;8.05;;;10.60;99.90;;;;;;5034233;28;20021;-33
2022/05/06 03:43:40;;;;;;;15.23;8.45;;;10.60;99.90;;;;;;5034311;28;20080;-32
2022/05/06 03:46:06;;;;;;;16.25;8.55;;;10.60;99.90;;;;;;5034216;28;20064;-32
2022/05/06 03:48:34;;;;;;;18.25;9.18;;;10.50;99.90;;;;;;5034144;28;20025;-33
2022/05/06 03:53:44;;;;;;;16.33;8.38;;;10.70;99.90;;;;;;5034266;28;20401;-31
2022/05/06 03:56:09;;;;;;;15.25;7.78;;;10.70;99.90;;;;;;5034025;28;20029;-31
2022/05/06 03:58:35;;;;;;;18.02;8.20;;;10.70;99.90;;;;;;5032687;28;20029;-38
2022/05/06 04:01:03;;;;;;;15.88;8.40;;;10.70;99.90;;;;;;5034021;28;20053;-38
2022/05/06 04:03:29;;;;;;;19.38;9.15;;;10.80;99.90;;;;;;5034097;28;20091;-39
2022/05/06 04:05:54;;;;;;;15.30;8.18;;;10.80;99.90;;;;;;5033809;28;20025;-37
2022/05/06 04:08:20;;;;;;;16.27;8.18;;;10.70;99.90;;;;;;5033796;28;20031;-37
2022/05/06 04:10:46;;;;;;;23.00;9.13;;;10.70;99.90;;;;;;5032073;28;20116;-38
2022/05/06 04:13:12;;;;;;;15.23;7.80;;;10.70;99.90;;;;;;5033369;28;20032;-33
2022/05/06 04:15:38;;;;;;;14.40;7.93;;;10.70;99.90;;;;;;5033579;28;20422;-30
2022/05/06 04:18:04;;;;;;;13.43;7.57;;;10.70;99.90;;;;;;5033838;28;20414;-37
2022/05/06 04:23:29;;;;;;;13.65;7.30;;;10.80;99.90;;;;;;5033748;28;20088;-35
2022/05/06 04:26:00;;;;;;;12.63;6.90;;;10.80;99.90;;;;;;5033838;28;20053;-37
2022/05/06 04:28:27;;;;;;;19.02;8.70;;;10.70;99.90;;;;;;5032173;28;20116;-37
2022/05/06 04:30:53;;;;;;;16.45;8.18;;;10.70;99.90;;;;;;5033586;28;20084;-37
2022/05/06 04:33:20;;;;;;;14.63;8.32;;;10.70;99.90;;;;;;5033139;28;20033;-36
2022/05/06 04:35:46;;;;;;;15.77;7.40;;;10.70;99.90;;;;;;5033302;28;20075;-30
2022/05/06 04:38:12;;;;;;;12.95;7.82;;;10.70;99.90;;;;;;5033385;28;20082;-38
2022/05/06 04:40:38;;;;;;;14.15;7.40;;;10.70;99.90;;;;;;5031816;28;20021;-38
2022/05/06 04:43:04;;;;;;;15.40;7.20;;;10.60;99.90;;;;;;5033208;28;20021;-38
2022/05/06 04:45:30;;;;;;;15.20;7.70;;;10.60;99.90;;;;;;5033188;28;20159;-29
2022/05/06 04:47:56;;;;;;;14.65;7.35;;;10.70;99.90;;;;;;5033255;28;20022;-35
2022/05/06 04:50:22;;;;;;;13.27;6.85;;;10.70;99.90;;;;;;5033151;28;20363;-29
2022/05/06 04:52:49;;;;;;;13.05;6.50;;;10.80;99.90;;;;;;5033437;28;20462;-29
2022/05/06 04:55:15;;;;;;;14.27;7.45;;;10.80;99.90;;;;;;5033026;28;20017;-39
2022/05/06 04:57:41;;;;;;;11.18;6.75;;;10.90;99.90;;;;;;5031830;28;20474;-38
2022/05/06 05:00:07;;;;;;;13.35;6.30;;;10.90;99.90;;;;;;5033154;28;20033;-38
2022/05/06 05:02:33;;;;;;;10.52;6.25;;;10.90;99.90;;;;;;5033314;28;20021;-38
2022/05/06 05:04:59;;;;;;;13.30;6.25;;;10.90;99.90;;;;;;5033110;28;20549;-37
2022/05/06 05:07:25;;;;;;;10.98;6.07;;;11.00;99.90;;;;;;5032978;28;20113;-38
2022/05/06 05:09:51;;;;;;;12.20;6.65;;;10.90;99.90;;;;;;5032905;28;20057;-36
2022/05/06 05:12:18;;;;;;;9.43;6.43;;;10.90;99.90;;;;;;5033063;28;20496;-36
2022/05/06 05:14:44;;;;;;;10.33;6.13;;;11.00;99.90;;;;;;5032715;28;20121;-36
2022/05/06 05:17:11;;;;;;;10.98;6.35;;;10.90;99.90;;;;;;5031833;28;20541;-37
2022/05/06 05:19:37;;;;;;;6.97;4.40;;;10.90;99.90;;;;;;5032959;28;20033;-38
2022/05/06 05:22:04;;;;;;;12.77;5.95;;;10.90;99.90;;;;;;5032871;28;20557;-38
2022/05/06 05:24:30;;;;;;;10.82;6.47;;;11.00;99.90;;;;;;5032805;28;20029;-37
2022/05/06 05:26:57;;;;;;;11.73;5.88;;;11.00;99.90;;;;;;5032837;28;20021;-36
2022/05/06 05:29:23;;;;;;;9.02;5.70;;;11.00;99.90;;;;;;5032800;28;20026;-37
2022/05/06 05:31:52;;;;;;;8.55;5.65;;;11.10;99.90;;;;;;5033749;28;20557;-38
2022/05/06 05:34:18;;;;;;;8.50;5.38;;;11.10;99.90;;;;;;5036738;28;20025;-37
2022/05/06 05:36:44;;;;;;;13.82;6.13;;;11.10;99.90;;;;;;5036634;28;20505;-36
2022/05/06 05:39:11;;;;;;;10.80;6.38;;;11.00;99.90;;;;;;5036913;28;20018;-38
2022/05/06 05:41:37;;;;;;;12.03;6.53;;;11.10;99.90;;;;;;5035341;28;20390;-37
2022/05/06 05:49:32;;;;;;;9.90;5.90;;;10.80;99.90;;;;;;5036683;28;20064;-33
2022/05/06 05:51:58;;;;;;;10.18;6.07;;;10.70;99.90;;;;;;5036398;28;20072;-30
2022/05/06 05:54:23;;;;;;;10.63;5.70;;;10.80;99.90;;;;;;5036348;28;20500;-35
2022/05/06 05:56:49;;;;;;;13.23;6.40;;;10.70;99.90;;;;;;5036206;28;20029;-33
2022/05/06 05:59:15;;;;;;;9.43;6.20;;;10.80;99.90;;;;;;5036198;28;20029;-30
2022/05/06 06:01:41;;;;;;;14.35;5.63;;;10.80;99.90;;;;;;5036154;28;20115;-30
2022/05/06 06:04:06;;;;;;;9.07;5.28;;;10.80;99.90;;;;;;5035975;28;20025;-31
2022/05/06 06:06:32;;;;;;;10.20;5.85;;;10.80;99.90;;;;;;5036091;28;20031;-31
2022/05/06 06:08:57;;;;;;;10.15;5.30;;;10.90;99.90;;;;;;5036000;28;20485;-33
2022/05/06 06:11:23;;;;;;;12.07;5.82;;;10.90;99.90;;;;;;5034378;28;20103;-33
2022/05/06 06:13:49;;;;;;;11.30;6.38;;;11.00;99.90;;;;;;5035774;28;20038;-33
2022/05/06 06:16:14;;;;;;;12.68;6.18;;;10.90;99.90;;;;;;5035912;28;20517;-30
2022/05/06 06:18:40;;;;;;;12.93;5.68;;;10.90;99.90;;;;;;5035898;28;20482;-33
2022/05/06 06:21:06;;;;;;;9.68;6.07;;;10.90;99.90;;;;;;5035746;28;20052;-31
2022/05/06 06:23:32;;;;;;;8.93;5.75;;;10.90;99.90;;;;;;5035774;28;20079;-48
2022/05/06 06:25:58;;;;;;;9.90;5.63;;;10.90;99.90;;;;;;5036031;28;20509;-38
2022/05/06 06:28:24;;;;;;;10.07;5.93;;;10.90;99.90;;;;;;5035711;28;20021;-38
2022/05/06 06:30:50;;;;;;;9.38;5.60;;;11.00;99.90;;;;;;5035695;28;20393;-38
2022/05/06 06:33:16;;;;;;;15.13;7.28;;;11.10;99.90;;;;;;5035707;28;20030;-40
2022/05/06 06:35:41;;;;;;;12.40;7.68;;;11.20;99.90;;;;;;5035520;28;20026;-37
2022/05/06 06:38:07;;;;;;;11.20;6.15;;;11.20;99.90;;;;;;5035585;28;20385;-60
2022/05/06 06:40:33;;;;;;;19.38;7.40;;;11.20;99.90;;;;;;5035625;28;20017;-37
2022/05/06 06:43:01;;;;;;;21.52;7.95;;;11.30;99.90;;;;;;5035373;28;20494;-37
2022/05/06 06:45:27;;;;;;;;;;;11.40;99.90;;;;;;5036044;28;20526;-38
2022/05/06 06:47:53;;;;;;;11.93;7.45;;;11.40;99.90;;;;;;5035443;28;19905;-38
2022/05/06 06:50:19;;;;;;;12.52;7.15;;;11.40;99.90;;;;;;5035514;28;20060;-39
2022/05/06 06:52:45;;;;;;;18.90;7.85;;;11.30;99.90;;;;;;5035322;28;20315;-38
2022/05/06 06:55:10;;;;;;;16.75;7.82;;;11.40;99.90;;;;;;5035464;28;20432;-37
2022/05/06 06:57:36;;;;;;;16.63;7.95;;;11.50;99.90;;;;;;5035118;28;20045;-38
2022/05/06 07:00:02;;;;;;;13.45;7.90;;;11.70;99.90;;;;;;5035136;28;20025;-39
2022/05/06 07:02:28;;;;;;;12.07;7.53;;;11.80;99.90;;;;;;5035071;28;20510;-38
2022/05/06 07:04:53;;;;;;;11.88;8.13;;;12.00;99.90;;;;;;5035041;28;20060;-37
2022/05/06 07:12:48;;;;;;;14.65;7.22;;;12.40;99.90;;;;;;5035033;28;20044;-38
2022/05/06 07:15:14;;;;;;;13.93;7.45;;;12.60;99.90;;;;;;5034476;28;20489;-38
2022/05/06 07:17:39;;;;;;;12.82;7.13;;;12.70;99.90;;;;;;5035021;28;20028;-37
2022/05/06 07:20:05;;;;;;;12.50;7.32;;;12.80;99.90;;;;;;5034733;28;20071;-37
2022/05/06 07:22:31;;;;;;;10.35;6.55;;;12.80;99.90;;;;;;5033471;28;20473;-39
2022/05/06 07:24:56;;;;;;;13.60;7.40;;;12.80;99.90;;;;;;5034664;28;20056;-38
2022/05/06 07:27:23;;;;;;;12.65;7.18;;;12.80;99.90;;;;;;5033481;28;20367;-38
2022/05/06 07:29:49;;;;;;;13.00;6.88;;;12.90;99.90;;;;;;5034461;28;20083;-38
2022/05/06 07:32:14;;;;;;;14.52;7.43;;;13.10;99.90;;;;;;5034693;28;20029;-39
2022/05/06 07:34:40;;;;;;;13.80;7.45;;;13.10;99.90;;;;;;5034156;28;20024;-39
2022/05/06 07:37:06;;;;;;;12.18;6.97;;;13.00;99.90;;;;;;5034181;28;20396;-38
2022/05/06 07:39:31;;;;;;;14.95;7.32;;;13.10;99.90;;;;;;5034349;28;20028;-37
2022/05/06 07:41:57;;;;;;;12.02;6.90;;;13.10;99.90;;;;;;5034408;28;20026;-37
2022/05/06 07:44:22;;;;;;;9.85;6.57;;;13.30;99.90;;;;;;5034213;28;20028;-41
2022/05/06 07:46:48;;;;;;;12.93;7.72;;;13.50;99.90;;;;;;5032931;28;20117;-36
2022/05/06 07:49:14;;;;;;;9.27;6.35;;;13.60;99.90;;;;;;5034220;28;20045;-37
2022/05/06 07:51:43;;;;;;;10.25;6.40;;;13.80;99.90;;;;;;5034175;28;20052;-37
2022/05/06 07:54:09;;;;;;;12.85;7.00;;;14.10;99.90;;;;;;5034016;28;20443;-38
2022/05/06 07:56:34;;;;;;;11.25;7.70;;;14.40;99.90;;;;;;5033843;28;20116;-68
2022/05/06 07:59:00;;;;;;;10.45;6.82;;;14.90;99.90;;;;;;5033944;28;20025;-38
2022/05/06 08:06:54;;;;;;;16.08;8.30;;;15.30;99.90;;;;;;5034175;28;20086;-38
2022/05/06 08:09:20;;;;;;;14.30;7.72;;;15.50;99.90;;;;;;5033844;28;20474;-51
2022/05/06 08:11:47;;;;;;;11.88;7.25;;;15.50;99.90;;;;;;5033734;28;20029;-38
2022/05/06 08:14:14;;;;;;;17.27;7.68;;;15.30;99.90;;;;;;5033753;28;20167;-39
2022/05/06 08:16:40;;;;;;;13.50;7.80;;;15.10;99.90;;;;;;5033712;28;20489;-38
2022/05/06 08:19:06;;;;;;;10.45;6.22;;;15.00;99.90;;;;;;5033590;28;20021;-38
2022/05/06 08:21:31;;;;;;;11.55;6.63;;;15.20;99.90;;;;;;5033521;28;20037;-33
2022/05/06 08:23:57;;;;;;;10.02;6.45;;;15.40;99.90;;;;;;5033491;28;20037;-37
2022/05/06 08:26:22;;;;;;;10.98;6.38;;;15.60;99.90;;;;;;5033479;28;20079;-37
2022/05/06 08:28:48;;;;;;;13.25;7.00;;;16.00;99.90;;;;;;5033395;28;20037;-36
2022/05/06 08:31:14;;;;;;;10.07;6.68;;;16.40;99.90;;;;;;5032160;28;20050;-37
2022/05/06 08:33:39;;;;;;;9.45;6.43;;;16.80;99.90;;;;;;5033585;28;20048;-35
2022/05/06 08:36:05;;;;;;;8.77;5.90;;;17.10;99.90;;;;;;5031870;28;20095;-48
2022/05/06 08:38:31;;;;;;;11.98;6.43;;;17.00;99.90;;;;;;5031843;28;20025;-39
2022/05/06 08:40:58;;;;;;;14.15;6.68;;;17.20;99.90;;;;;;5033271;28;20478;-40
2022/05/06 08:43:23;;;;;;;12.73;6.93;;;17.20;99.90;;;;;;5033308;28;20029;-32
2022/05/06 08:51:26;;;;;;;9.50;5.30;;;18.30;99.90;;;;;;5033515;28;20045;-38
2022/05/06 08:53:54;;;;;;;7.20;4.60;;;18.30;99.90;;;;;;5033473;28;20433;-35
2022/05/06 08:56:20;;;;;;;6.78;4.93;;;18.70;99.90;;;;;;5033163;28;20401;-38
2022/05/06 08:58:45;;;;;;;6.88;4.68;;;19.10;99.90;;;;;;5033235;28;20029;-33
2022/05/06 09:01:13;;;;;;;6.93;5.15;;;19.20;99.90;;;;;;5033033;28;20029;-30
2022/05/06 09:03:40;;;;;;;16.48;6.57;;;19.40;99.90;;;;;;5032929;28;20036;-29
2022/05/06 09:06:26;;;;;;;7.88;5.57;;;19.60;99.90;;;;;;5033023;28;20040;-29
2022/05/06 09:08:53;;;;;;;8.50;5.40;;;19.70;99.90;;;;;;5037410;28;20512;-32
2022/05/06 09:14:05;;;;;;;7.50;4.77;;;20.40;99.90;;;;;;5037093;28;20099;-30
2022/05/06 09:16:40;;;;;;;6.85;4.55;;;20.80;99.90;;;;;;5037127;28;20550;-34
2022/05/06 09:19:21;;;;;;;11.55;4.82;;;21.10;99.90;;;;;;5037052;28;20389;-30
2022/05/06 09:22:14;;;;;;;7.07;4.60;;;21.50;99.90;;;;;;5037081;28;20025;-31
2022/05/06 09:24:47;;;;;;;7.10;4.13;;;21.70;99.90;;;;;;5037219;28;20478;-32
2022/05/06 09:27:14;;;;;;;5.93;4.43;;;21.70;99.90;;;;;;5037024;28;20481;-33
2022/05/06 09:29:44;;;;;;;5.00;4.23;;;22.30;99.90;;;;;;5036839;28;20136;-29
2022/05/06 09:32:22;;;;;;;3.50;2.55;;;22.30;99.90;;;;;;5037060;28;20033;-30
2022/05/06 09:34:58;;;;;;;4.35;3.15;;;22.90;99.90;;;;;;5036872;28;20477;-34
2022/05/06 09:37:47;;;;;;;4.40;3.55;;;23.40;98.80;;;;;;5036721;28;20037;-35
2022/05/06 09:40:12;;;;;;;4.32;3.20;;;23.10;98.30;;;;;;5036658;28;20033;-29
2022/05/06 09:42:39;;;;;;;9.55;3.95;;;22.90;98.90;;;;;;5036455;28;20025;-33
2022/05/06 09:45:07;;;;;;;9.25;4.70;;;22.60;98.90;;;;;;5036439;28;20079;-34
2022/05/06 09:47:33;;;;;;;6.97;4.38;;;22.00;99.60;;;;;;5036487;28;20528;-30
2022/05/06 09:49:59;;;;;;;6.33;4.33;;;21.90;99.90;;;;;;5036743;28;20378;-34
2022/05/06 09:52:25;;;;;;;6.80;4.55;;;21.90;99.90;;;;;;5036681;28;20112;-30
2022/05/06 09:54:53;;;;;;;10.43;5.53;;;21.90;99.90;;;;;;5036301;28;20524;-37
2022/05/06 09:57:19;;;;;;;6.65;5.05;;;21.80;99.90;;;;;;5036315;28;20033;-39
2022/05/06 09:59:45;;;;;;;10.02;5.45;;;21.80;99.90;;;;;;5036555;28;20025;-39
2022/05/06 10:02:11;;;;;;;8.93;5.27;;;21.70;99.90;;;;;;5036198;28;20167;-39
2022/05/06 10:04:38;;;;;;;7.95;5.90;;;21.20;99.90;;;;;;5036030;28;20061;-38
2022/05/06 10:07:12;;;;;;;13.10;5.40;;;21.00;99.90;;;;;;5036088;28;20048;-38
2022/05/06 10:09:58;;;;;;;7.03;4.72;;;21.00;99.90;;;;;;5036039;28;20319;-39
2022/05/06 10:12:27;;;;;;;8.90;5.17;;;21.30;99.90;;;;;;5036337;28;20469;-37
2022/05/06 10:14:54;;;;;;;7.38;5.68;;;21.80;99.90;;;;;;5034560;28;20056;-37
2022/05/06 10:17:50;;;;;;;12.75;5.90;;;21.00;99.80;;;;;;5034287;28;20115;-37
2022/05/06 10:20:35;;;;;;;8.10;5.80;;;20.90;99.90;;;;;;5035865;28;20494;-39
2022/05/06 10:23:02;;;;;;;6.38;5.13;;;21.20;99.90;;;;;;5036100;28;20532;-38
2022/05/06 10:25:43;;;;;;;7.15;5.75;;;20.90;99.70;;;;;;5035651;28;20032;-45
2022/05/06 10:34:13;;;;;;;8.48;5.78;;;21.80;99.50;;;;;;5035852;28;20041;-38
2022/05/06 10:36:43;;;;;;;12.30;5.72;;;22.40;98.80;;;;;;5035814;28;20174;-39
2022/05/06 10:39:20;;;;;;;10.95;5.88;;;22.70;98.10;;;;;;5035540;28;20032;-38
2022/05/06 10:42:07;;;;;;;8.48;5.22;;;22.90;97.80;;;;;;5034207;28;20029;-39
2022/05/06 10:44:47;;;;;;;13.55;6.32;;;22.60;98.50;;;;;;5034276;28;20071;-39
2022/05/06 10:47:12;;;;;;;8.95;5.95;;;22.40;98.30;;;;;;5035299;28;20116;-40
2022/05/06 10:49:46;;;;;;;12.55;7.18;;;22.00;98.40;;;;;;5035160;28;20160;-38
2022/05/06 10:52:24;;;;;;;12.32;7.82;;;21.50;99.60;;;;;;5035561;28;20532;-38
2022/05/06 10:54:52;;;;;;;13.23;8.05;;;21.60;99.40;;;;;;5035301;28;20041;-39
2022/05/06 10:57:24;;;;;;;;;;;21.60;99.80;;;;;;5035784;28;20504;-38
2022/05/06 11:00:07;;;;;;;14.45;9.00;;;21.70;99.50;;;;;;5035099;28;19908;-38
2022/05/06 11:02:35;;;;;;;15.27;7.85;;;21.50;99.90;;;;;;5035021;28;20026;-38
2022/05/06 11:05:06;;;;;;;16.48;8.32;;;21.50;99.90;;;;;;5035282;28;20108;-38
2022/05/06 11:07:34;;;;;;;16.83;8.68;;;21.20;99.50;;;;;;5035018;28;20104;-39
2022/05/06 11:10:09;;;;;;;17.15;10.13;;;21.20;99.90;;;;;;5035238;28;20026;-38
2022/05/06 11:13:07;;;;;;;15.40;10.07;;;21.00;99.90;;;;;;5035274;28;20045;-38
2022/05/06 11:15:33;;;;;;;20.67;9.55;;;21.10;99.90;;;;;;5034724;28;20087;-44
2022/05/06 11:18:01;;;;;;;27.23;10.23;;;21.20;99.90;;;;;;5034785;28;20554;-37
2022/05/06 11:20:30;;;;;;;16.92;8.70;;;21.30;99.90;;;;;;5034995;28;20429;-37
2022/05/06 11:23:04;;;;;;;15.07;8.98;;;21.20;99.90;;;;;;5035037;28;20060;-33
2022/05/06 11:25:50;;;;;;;16.17;8.18;;;21.10;99.90;;;;;;5034728;28;20025;-34
2022/05/06 11:28:16;;;;;;;21.67;10.50;;;20.70;99.90;;;;;;5034079;28;20057;-30
2022/05/06 11:30:44;;;;;;;14.73;7.40;;;20.10;99.90;;;;;;5033542;28;20037;-32
2022/05/06 11:33:24;;;;;;;26.33;11.00;;;20.30;99.90;;;;;;5034693;28;20026;-28
2022/05/06 11:35:51;;;;;;;21.80;10.35;;;20.60;99.90;;;;;;5032885;28;20394;-28
2022/05/06 11:38:38;;;;;;;19.43;9.77;;;21.00;99.90;;;;;;5034305;28;20044;-31
2022/05/06 11:41:12;;;;;;;18.98;10.35;;;21.50;99.90;;;;;;5033507;28;20489;-35
2022/05/06 11:43:39;;;;;;;17.60;9.43;;;22.00;99.80;;;;;;5032823;28;20030;-36
2022/05/06 11:48:50;;;;;;;21.80;10.48;;;21.70;99.90;;;;;;5034244;28;20172;-38
2022/05/06 11:51:26;;;;;;;21.67;11.10;;;21.50;99.90;;;;;;5033993;28;20045;-29
2022/05/06 11:53:53;;;;;;;18.65;9.93;;;21.20;99.90;;;;;;5034195;28;20095;-28
2022/05/06 11:56:27;;;;;;;20.83;10.90;;;21.20;99.90;;;;;;5033721;28;20490;-32
2022/05/06 11:58:55;;;;;;;18.42;9.77;;;21.50;99.90;;;;;;5034076;28;20036;-37
2022/05/06 12:01:30;;;;;;;18.35;9.85;;;22.10;99.90;;;;;;5033660;28;20033;-33
2022/05/06 12:04:04;;;;;;;19.10;9.68;;;22.50;99.70;;;;;;5033826;28;20028;-37
2022/05/06 12:06:33;;;;;;;22.60;10.35;;;23.00;98.70;;;;;;5033770;28;20033;-39
2022/05/06 12:09:13;;;;;;;21.02;11.70;;;23.30;98.50;;;;;;5033994;28;20520;-31
2022/05/06 12:11:39;;;;;;;19.55;9.60;;;23.10;97.90;;;;;;5033745;28;20025;-31
2022/05/06 12:14:19;;;;;;;18.23;10.52;;;22.70;98.70;;;;;;5033470;28;20060;-32
2022/05/06 12:17:05;;;;;;;19.88;9.68;;;22.70;99.20;;;;;;5033589;28;20159;-28
2022/05/06 12:19:42;;;;;;;17.98;10.63;;;22.40;98.70;;;;;;5033258;28;20132;-29
2022/05/06 12:22:13;;;;;;;19.93;10.17;;;21.70;99.80;;;;;;5033213;28;20077;-44
2022/05/06 12:24:45;;;;;;;17.83;9.82;;;21.40;99.90;;;;;;5033564;28;20031;-43
2022/05/06 12:27:11;;;;;;;18.77;9.45;;;21.10;99.90;;;;;;5033809;28;20433;-38
2022/05/06 12:29:41;;;;;;;17.00;9.43;;;21.40;99.90;;;;;;5033543;28;20061;-32
2022/05/06 12:32:11;;;;;;;17.25;10.20;;;21.90;99.90;;;;;;5033674;28;20052;-31
2022/05/06 12:34:36;;;;;;;16.30;9.13;;;22.20;99.20;;;;;;5033310;28;20025;-32
2022/05/06 12:37:16;;;;;;;15.73;9.43;;;22.00;99.40;;;;;;5033331;28;20037;-32
2022/05/06 12:39:48;;;;;;;16.58;9.60;;;21.90;99.60;;;;;;5033396;28;20025;-48
2022/05/06 12:42:21;;;;;;;14.98;8.43;;;21.50;99.90;;;;;;5032851;28;20509;-38
2022/05/06 12:44:47;;;;;;;18.38;9.45;;;21.20;99.90;;;;;;5033353;28;20545;-38
2022/05/06 12:49:39;;;;;;;17.50;9.60;;;21.00;99.90;;;;;;5033315;28;20526;-38
2022/05/06 12:50:00;;;;;;;20.48;10.15;;;20.90;99.90;;;;;;5033216;28;20060;-38
2022/05/06 12:52:25;;;;;;;21.17;10.90;;;20.90;99.90;;;;;;5033381;28;20022;-37
2022/05/06 12:54:51;;;;;;;21.33;11.35;;;20.70;99.90;;;;;;5033110;28;20137;-39
2022/05/06 12:57:17;;;;;;;20.13;10.65;;;20.60;99.90;;;;;;5033038;28;20025;-39
2022/05/06 12:59:44;;;;;;;19.17;11.13;;;20.20;99.90;;;;;;5033014;28;20021;-37
2022/05/06 13:02:09;;;;;;;19.38;11.13;;;20.00;99.90;;;;;;5031565;28;20112;-39
2022/05/06 13:04:36;;;;;;;19.58;10.52;;;19.80;99.90;;;;;;5033085;28;20433;-38
2022/05/06 13:07:02;;;;;;;16.73;10.38;;;19.80;99.90;;;;;;5033331;28;20362;-38
2022/05/06 13:09:28;;;;;;;16.92;10.05;;;19.80;99.90;;;;;;5033199;28;20036;-39
2022/05/06 13:11:53;;;;;;;18.40;11.05;;;19.80;99.90;;;;;;5031546;28;20088;-38
2022/05/06 13:14:21;;;;;;;17.38;10.55;;;19.70;99.90;;;;;;5033031;28;20046;-39
2022/05/06 13:16:48;;;;;;;17.65;10.93;;;19.70;99.90;;;;;;5032725;28;20113;-37
2022/05/06 13:19:13;;;;;;;16.67;10.52;;;19.70;99.90;;;;;;5032809;28;20501;-39
2022/05/06 13:21:39;;;;;;;21.75;10.90;;;19.70;99.90;;;;;;5033245;28;20039;-55
2022/05/06 13:24:05;;;;;;;19.60;10.52;;;19.90;99.90;;;;;;5032707;28;20022;-43
2022/05/06 13:26:31;;;;;;;16.50;10.05;;;20.00;99.90;;;;;;5032764;28;20033;-38